createdAt,value
2023-05-15T00:02:24.411Z,96363.91
2023-05-15T00:07:45.307Z,96355.38
2023-05-15T00:13:06.127Z,96355.19
2023-05-15T00:18:27.385Z,96353.72
2023-05-15T00:23:49.099Z,96340.31
2023-05-15T00:29:10.279Z,96332.00
2023-05-15T00:34:33.250Z,96332.66
2023-05-15T00:39:54.187Z,96328.41
2023-05-15T00:45:15.905Z,96321.03
2023-05-15T00:50:37.200Z,96317.72
2023-05-15T00:55:59.550Z,96314.91
2023-05-15T01:01:20.453Z,96313.56
2023-05-15T01:06:41.607Z,96306.06
2023-05-15T01:12:04.968Z,96303.84
2023-05-15T01:17:26.085Z,96304.03
2023-05-15T01:23:00.598Z,96303.03
2023-05-15T01:28:45.719Z,96301.84
2023-05-15T01:34:09.737Z,96297.59
2023-05-15T01:39:33.943Z,96297.91
2023-05-15T01:44:57.044Z,96294.19
2023-05-15T01:50:20.782Z,96295.56
2023-05-15T01:55:42.644Z,96289.63
2023-05-15T02:01:04.909Z,96283.75
2023-05-15T02:06:26.163Z,96279.69
2023-05-15T02:11:48.100Z,96270.03
2023-05-15T02:17:09.125Z,96268.94
2023-05-15T02:22:29.889Z,96263.28
2023-05-15T02:28:00.762Z,96254.47
2023-05-15T02:33:21.898Z,96247.13
2023-05-15T02:38:49.305Z,96244.53
2023-05-15T02:44:12.150Z,96241.56
2023-05-15T02:49:33.424Z,96230.94
2023-05-15T02:54:54.645Z,96227.84
2023-05-15T03:00:16.344Z,96222.63
2023-05-15T03:05:37.298Z,96226.94
2023-05-15T03:10:58.373Z,96224.34
2023-05-15T03:16:19.487Z,96217.66
2023-05-15T03:21:40.588Z,96209.16
2023-05-15T03:27:01.393Z,96204.09
2023-05-15T03:32:23.237Z,96204.41
2023-05-15T03:37:44.222Z,96199.50
2023-05-15T03:43:06.397Z,96193.16
2023-05-15T03:48:27.149Z,96190.06
2023-05-15T03:53:47.915Z,96187.13
2023-05-15T03:59:08.842Z,96179.44
2023-05-15T04:04:29.753Z,96183.22
2023-05-15T04:09:53.374Z,96176.22
2023-05-15T04:15:22.989Z,96171.19
2023-05-15T04:20:43.969Z,96166.28
2023-05-15T04:26:04.872Z,96169.69
2023-05-15T04:31:27.351Z,96164.16
2023-05-15T04:36:51.465Z,96161.56
2023-05-15T04:42:12.513Z,96164.34
2023-05-15T04:47:33.369Z,96157.00
2023-05-15T04:52:54.424Z,96156.72
2023-05-15T04:58:15.070Z,96157.72
2023-05-15T05:03:35.915Z,96147.78
2023-05-15T05:08:58.469Z,96142.25
2023-05-15T05:14:19.820Z,96147.94
2023-05-15T05:19:42.216Z,96134.41
2023-05-15T05:25:03.603Z,96127.53
2023-05-15T05:30:24.700Z,96131.13
2023-05-15T05:35:45.282Z,96123.13
2023-05-15T05:41:06.241Z,96133.56
2023-05-15T05:46:27.435Z,96130.34
2023-05-15T05:51:48.673Z,96130.16
2023-05-15T05:57:09.840Z,96120.84
2023-05-15T06:02:31.300Z,96121.66
2023-05-15T06:07:53.792Z,96119.06
2023-05-15T06:13:15.283Z,96123.00
2023-05-15T06:18:36.131Z,96119.94
2023-05-15T06:23:56.873Z,96123.19
2023-05-15T06:29:17.651Z,96122.34
2023-05-15T06:34:38.462Z,96114.81
2023-05-15T06:39:59.353Z,96117.44
2023-05-15T06:45:20.003Z,96123.81
2023-05-15T06:50:40.810Z,96116.47
2023-05-15T06:56:01.760Z,96119.91
2023-05-15T07:01:22.707Z,96111.91
2023-05-15T07:06:43.602Z,96109.63
2023-05-15T07:12:04.801Z,96113.72
2023-05-15T07:17:25.721Z,96108.00
2023-05-15T07:22:55.822Z,96095.59
2023-05-15T07:28:19.147Z,96109.97
2023-05-15T07:33:41.200Z,96112.78
2023-05-15T07:39:02.105Z,96108.22
2023-05-15T07:44:23.151Z,96101.66
2023-05-15T07:49:47.382Z,96104.31
2023-05-15T07:55:10.612Z,96100.88
2023-05-15T08:00:31.788Z,96109.72
2023-05-15T08:05:52.956Z,96107.59
2023-05-15T08:11:13.963Z,96107.78
2023-05-15T08:16:35.185Z,96106.84
2023-05-15T08:21:55.847Z,96111.56
2023-05-15T08:27:16.773Z,96113.34
2023-05-15T08:32:37.742Z,96111.88
2023-05-15T08:37:59.330Z,96122.00
2023-05-15T08:43:22.758Z,96116.16
2023-05-15T08:48:44.233Z,96120.25
2023-05-15T08:54:07.427Z,96123.53
2023-05-15T08:59:29.188Z,96135.09
2023-05-15T09:04:51.757Z,96135.28
2023-05-15T09:10:14.355Z,96125.16
2023-05-15T09:15:35.407Z,96140.03
2023-05-15T09:20:56.664Z,96140.66
2023-05-15T09:26:17.414Z,96139.69
2023-05-15T09:31:38.307Z,96147.16
2023-05-15T09:37:00.948Z,96151.06
2023-05-15T09:42:24.750Z,96149.69
2023-05-15T09:47:47.351Z,96158.38
2023-05-15T09:53:12.868Z,96165.28
2023-05-15T09:58:35.348Z,96171.34
2023-05-15T10:04:00.827Z,96172.81
2023-05-15T10:09:33.774Z,96179.25
2023-05-15T10:14:57.441Z,96178.88
2023-05-15T10:20:26.221Z,96184.25
2023-05-15T10:26:02.118Z,96182.13
2023-05-15T10:31:25.393Z,96174.59
2023-05-15T10:36:49.526Z,96169.44
2023-05-15T10:42:13.546Z,96163.25
2023-05-15T10:47:35.487Z,96161.41
2023-05-15T10:52:56.693Z,96156.91
2023-05-15T10:58:18.050Z,96161.91
2023-05-15T11:03:48.583Z,96161.06
2023-05-15T11:09:22.572Z,96158.44
2023-05-15T11:15:04.568Z,96150.00
2023-05-15T11:20:43.007Z,96149.69
2023-05-15T11:26:05.785Z,96139.72
2023-05-15T11:31:32.707Z,96139.19
2023-05-15T11:36:53.580Z,96130.59
2023-05-15T11:42:17.481Z,96136.66
2023-05-15T11:47:38.525Z,96138.56
2023-05-15T11:53:10.691Z,96142.72
2023-05-15T11:58:32.002Z,96140.28
2023-05-15T12:03:54.403Z,96125.09
2023-05-15T12:09:17.568Z,96110.81
2023-05-15T12:14:40.117Z,96108.53
2023-05-15T12:20:01.445Z,96107.63
2023-05-15T12:25:22.703Z,96102.22
2023-05-15T12:30:43.930Z,96105.72
2023-05-15T12:36:05.164Z,96099.94
2023-05-15T12:41:29.563Z,96096.38
2023-05-15T12:46:54.976Z,96082.41
2023-05-15T12:52:16.717Z,96083.34
2023-05-15T12:57:37.778Z,96081.41
2023-05-15T13:02:59.603Z,96082.97
2023-05-15T13:08:20.693Z,96087.19
2023-05-15T13:13:43.595Z,96083.09
2023-05-15T13:19:05.711Z,96071.75
2023-05-15T13:24:27.111Z,96069.00
2023-05-15T13:29:48.598Z,96075.69
2023-05-15T13:35:10.453Z,96063.88
2023-05-15T13:40:37.293Z,96057.66
2023-05-15T13:45:58.331Z,96072.63
2023-05-15T13:51:19.103Z,96058.44
2023-05-15T13:56:39.940Z,96070.00
2023-05-15T14:02:00.589Z,96081.06
2023-05-15T14:07:24.678Z,96083.47
2023-05-15T14:12:47.064Z,96087.78
2023-05-15T14:18:08.177Z,96095.97
2023-05-15T14:23:29.360Z,96095.97
2023-05-15T14:28:50.850Z,96094.28
2023-05-15T14:34:11.587Z,96095.03
2023-05-15T14:39:32.863Z,96093.59
2023-05-15T14:44:53.561Z,96088.63
2023-05-15T14:50:14.305Z,96091.47
2023-05-15T14:55:35.190Z,96096.63
2023-05-15T15:00:56.486Z,96089.53
2023-05-15T15:06:17.463Z,96101.59
2023-05-15T15:11:38.399Z,96107.22
2023-05-15T15:16:59.100Z,96112.69
2023-05-15T15:22:19.878Z,96114.44
2023-05-15T15:27:41.012Z,96110.13
2023-05-15T15:33:02.003Z,96112.53
2023-05-15T15:38:22.995Z,96121.00
2023-05-15T15:43:44.032Z,96121.81
2023-05-15T15:49:06.777Z,96118.13
2023-05-15T15:54:29.016Z,96113.47
2023-05-15T15:59:50.218Z,96118.50
2023-05-15T16:05:11.079Z,96115.31
2023-05-15T16:10:32.064Z,96112.88
2023-05-15T16:15:53.149Z,96114.88
2023-05-15T16:21:14.521Z,96119.56
2023-05-15T16:26:38.028Z,96114.88
2023-05-15T16:31:59.549Z,96118.00
2023-05-15T16:37:23.629Z,96120.00
2023-05-15T16:42:44.894Z,96123.44
2023-05-15T16:48:06.310Z,96132.16
2023-05-15T16:53:27.483Z,96124.81
2023-05-15T16:58:48.439Z,96130.44
2023-05-15T17:04:10.453Z,96137.94
2023-05-15T17:09:31.226Z,96136.56
2023-05-15T17:14:52.437Z,96136.13
2023-05-15T17:20:13.824Z,96133.88
2023-05-15T17:25:36.486Z,96145.13
2023-05-15T17:30:57.259Z,96145.13
2023-05-15T17:36:18.063Z,96151.75
2023-05-15T17:41:39.229Z,96153.75
2023-05-15T17:47:02.361Z,96163.00
2023-05-15T17:52:23.266Z,96165.44
2023-05-15T17:57:49.848Z,96182.72
2023-05-15T18:03:11.361Z,96181.56
2023-05-15T18:08:32.524Z,96200.13
2023-05-15T18:13:53.421Z,96205.22
2023-05-15T18:19:14.738Z,96219.59
2023-05-15T18:24:35.784Z,96222.94
2023-05-15T18:29:56.916Z,96222.78
2023-05-15T18:35:18.345Z,96228.13
2023-05-15T18:40:39.505Z,96233.94
2023-05-15T18:46:00.595Z,96239.09
2023-05-15T18:51:21.565Z,96257.25
2023-05-15T18:56:43.273Z,96253.88
2023-05-15T19:02:04.543Z,96257.38
2023-05-15T19:07:28.826Z,96256.75
2023-05-15T19:12:49.739Z,96251.38
2023-05-15T19:18:11.051Z,96256.41
2023-05-15T19:23:32.425Z,96261.06
2023-05-15T19:28:53.448Z,96255.34
2023-05-15T19:34:14.620Z,96275.31
2023-05-15T19:39:36.045Z,96272.59
2023-05-15T19:44:57.200Z,96280.81
2023-05-15T19:50:18.776Z,96276.06
2023-05-15T19:55:40.402Z,96283.59
2023-05-15T20:01:01.647Z,96286.72
2023-05-15T20:06:22.676Z,96291.97
2023-05-15T20:11:43.705Z,96293.81
2023-05-15T20:17:05.243Z,96289.75
2023-05-15T20:22:26.572Z,96289.31
2023-05-15T20:27:48.458Z,96285.50
2023-05-15T20:33:10.023Z,96289.63
2023-05-15T20:38:31.281Z,96295.06
2023-05-15T20:43:52.224Z,96295.22
2023-05-15T20:49:13.797Z,96299.97
2023-05-15T20:54:35.706Z,96289.97
2023-05-15T20:59:56.632Z,96289.19
2023-05-15T21:05:19.743Z,96295.41
2023-05-15T21:10:41.253Z,96288.88
2023-05-15T21:16:02.301Z,96298.06
2023-05-15T21:21:23.474Z,96298.91
2023-05-15T21:26:44.436Z,96291.72
2023-05-15T21:32:06.681Z,96285.81
2023-05-15T21:37:32.563Z,96299.94
2023-05-15T21:42:53.775Z,96293.41
2023-05-15T21:48:15.081Z,96284.09
2023-05-15T21:53:36.072Z,96290.97
2023-05-15T21:58:57.323Z,96309.94
2023-05-15T22:04:18.106Z,96313.88
2023-05-15T22:09:38.967Z,96320.75
2023-05-15T22:15:00.571Z,96325.78
2023-05-15T22:20:21.509Z,96320.72
2023-05-15T22:25:42.970Z,96340.59
2023-05-15T22:31:04.356Z,96341.75
2023-05-15T22:36:25.403Z,96340.13
2023-05-15T22:41:47.637Z,96347.47
2023-05-15T22:47:08.703Z,96344.19
2023-05-15T22:52:29.446Z,96352.75
2023-05-15T22:57:50.160Z,96355.00
2023-05-15T23:03:12.576Z,96359.75
2023-05-15T23:08:33.320Z,96356.94
2023-05-15T23:13:54.803Z,96361.84
2023-05-15T23:19:18.799Z,96367.03
2023-05-15T23:24:39.840Z,96373.34
2023-05-15T23:30:00.777Z,96377.22
2023-05-15T23:35:21.896Z,96371.13
2023-05-15T23:40:42.569Z,96376.19
2023-05-15T23:46:03.476Z,96381.69
2023-05-15T23:51:24.471Z,96401.41
2023-05-15T23:56:45.876Z,96404.81
